Time;durP1;ratioP1;P1;durP2;ratioP2;P2;SDS_P1;SDS_P2;PMS_P1;PMS_P2;Temp;Humidity;BMP_temperature;BMP_pressure;BME280_temperature;BME280_humidity;BME280_pressure;Samples;Min_cycle;Max_cycle;Signal;HPM_P1;HPM_P2
2023/11/24 00:02:13;;;;;;;1.88;0.75;;;17.70;59.80;;;;;;6130524;23;20750;-80
2023/11/24 00:04:39;;;;;;;5.00;0.75;;;17.70;59.70;;;;;;6156340;23;20128;-81
2023/11/24 00:07:05;;;;;;;1.90;0.85;;;17.70;59.80;;;;;;6130060;23;20209;-81
2023/11/24 00:09:31;;;;;;;1.30;0.60;;;17.70;59.90;;;;;;6156375;23;20147;-81
2023/11/24 00:12:00;;;;;;;2.75;0.70;;;17.70;59.80;;;;;;6156286;23;20560;-81
2023/11/24 00:14:26;;;;;;;0.95;0.70;;;17.70;60.00;;;;;;6105744;23;20156;-82
2023/11/24 00:16:51;;;;;;;2.60;0.80;;;17.70;59.70;;;;;;6135587;23;20189;-81
2023/11/24 00:19:17;;;;;;;1.38;0.60;;;17.70;59.80;;;;;;6185865;23;20175;-80
2023/11/24 00:21:43;;;;;;;1.35;0.70;;;17.70;59.80;;;;;;6159742;23;20134;-81
2023/11/24 00:24:09;;;;;;;2.20;0.68;;;17.70;59.90;;;;;;6135206;23;20158;-82
2023/11/24 00:26:35;;;;;;;1.52;0.80;;;17.70;59.90;;;;;;6185899;23;20139;-82
2023/11/24 00:29:01;;;;;;;2.65;0.65;;;17.70;60.70;;;;;;6186181;23;20135;-81
2023/11/24 00:31:27;;;;;;;3.65;0.75;;;17.70;60.00;;;;;;6185816;23;20143;-81
2023/11/24 00:33:53;;;;;;;4.63;0.80;;;17.70;59.80;;;;;;6135062;23;20161;-79
2023/11/24 00:36:20;;;;;;;1.17;0.60;;;17.70;59.90;;;;;;6160109;23;20964;-80
2023/11/24 00:38:49;;;;;;;2.13;0.60;;;17.70;59.80;;;;;;6185555;23;20195;-80
2023/11/24 00:41:16;;;;;;;2.58;0.60;;;17.70;59.90;;;;;;6159937;23;20167;-82
2023/11/24 00:43:43;;;;;;;1.30;0.60;;;17.60;59.80;;;;;;6159250;23;20150;-79
2023/11/24 00:46:09;;;;;;;1.80;0.57;;;17.60;60.00;;;;;;6159335;23;20151;-81
2023/11/24 00:48:36;;;;;;;2.00;0.50;;;17.60;60.10;;;;;;6185724;23;20221;-81
2023/11/24 00:51:02;;;;;;;3.03;0.80;;;17.60;60.00;;;;;;6185370;23;20452;-81
2023/11/24 00:53:27;;;;;;;1.10;1.00;;;17.60;59.80;;;;;;6185708;23;20134;-79
2023/11/24 00:55:54;;;;;;;1.48;0.65;;;17.60;60.10;;;;;;6133730;23;20147;-81
2023/11/24 00:58:19;;;;;;;3.20;0.60;;;17.60;60.00;;;;;;6159639;23;20216;-80
2023/11/24 01:00:45;;;;;;;1.88;0.60;;;17.60;60.10;;;;;;6159294;23;20143;-81
2023/11/24 01:03:10;;;;;;;2.88;0.77;;;17.60;60.20;;;;;;6185701;23;20598;-81
2023/11/24 01:05:36;;;;;;;2.47;0.70;;;17.60;60.00;;;;;;6134747;23;20629;-79
2023/11/24 01:08:02;;;;;;;1.00;0.60;;;17.60;59.90;;;;;;6184701;23;20510;-82
2023/11/24 01:10:28;;;;;;;2.53;0.68;;;17.60;60.10;;;;;;6159004;23;20151;-83
2023/11/24 01:12:54;;;;;;;0.98;0.60;;;17.60;60.00;;;;;;6159079;23;20142;-81
2023/11/24 01:15:20;;;;;;;2.80;0.63;;;17.60;60.10;;;;;;6185422;23;20696;-81
2023/11/24 01:17:46;;;;;;;3.35;1.08;;;17.60;60.10;;;;;;6158773;23;20186;-83
2023/11/24 01:20:12;;;;;;;2.05;0.77;;;17.60;60.20;;;;;;6134414;23;20127;-80
2023/11/24 01:22:38;;;;;;;1.85;0.60;;;17.60;60.10;;;;;;6159197;23;20432;-79
2023/11/24 01:25:04;;;;;;;1.77;0.55;;;17.60;60.10;;;;;;6185239;23;20127;-79
2023/11/24 01:27:30;;;;;;;3.63;0.70;;;17.50;60.20;;;;;;6185719;23;20193;-81
2023/11/24 01:29:56;;;;;;;1.63;0.70;;;17.60;60.10;;;;;;6184972;23;20143;-78
2023/11/24 01:32:23;;;;;;;2.45;0.80;;;17.50;60.10;;;;;;6185026;23;20208;-81
2023/11/24 01:34:48;;;;;;;2.08;0.90;;;17.50;60.10;;;;;;6185596;23;20139;-79
2023/11/24 01:37:15;;;;;;;2.65;0.70;;;17.50;60.10;;;;;;6185230;23;20163;-78
2023/11/24 01:39:40;;;;;;;2.30;0.50;;;17.50;60.00;;;;;;6185384;23;20271;-80
2023/11/24 01:42:06;;;;;;;3.22;0.77;;;17.50;60.20;;;;;;6185137;23;20139;-79
2023/11/24 01:44:32;;;;;;;1.38;0.70;;;17.50;60.10;;;;;;6185064;23;20141;-80
2023/11/24 01:46:58;;;;;;;1.33;0.82;;;17.50;60.10;;;;;;6185212;23;20151;-82
2023/11/24 01:49:24;;;;;;;0.73;0.50;;;17.50;59.90;;;;;;6159070;23;20596;-80
2023/11/24 01:51:50;;;;;;;1.63;0.70;;;17.50;60.00;;;;;;6185052;23;20594;-81
2023/11/24 01:54:17;;;;;;;1.83;0.60;;;17.50;60.00;;;;;;6157970;23;20139;-82
2023/11/24 01:56:42;;;;;;;3.10;0.80;;;17.50;60.00;;;;;;6158882;23;20645;-79
2023/11/24 01:59:09;;;;;;;1.67;0.80;;;17.50;60.00;;;;;;6185090;23;20193;-81
2023/11/24 02:01:35;;;;;;;1.40;0.68;;;17.50;60.10;;;;;;6158859;23;20563;-79
2023/11/24 02:04:01;;;;;;;1.38;0.55;;;17.50;60.10;;;;;;6158780;23;20138;-81
2023/11/24 02:06:27;;;;;;;1.35;0.55;;;17.50;60.10;;;;;;6184946;23;20155;-81
2023/11/24 02:08:53;;;;;;;1.67;0.65;;;17.50;60.00;;;;;;6158816;23;20162;-82
2023/11/24 02:11:19;;;;;;;2.45;0.85;;;17.50;60.00;;;;;;6184823;23;20135;-79
2023/11/24 02:13:49;;;;;;;1.30;0.60;;;17.50;60.00;;;;;;6184757;23;20143;-80
2023/11/24 02:16:15;;;;;;;2.47;0.50;;;17.50;60.10;;;;;;6184835;23;20880;-83
2023/11/24 02:18:46;;;;;;;1.20;0.80;;;17.50;60.00;;;;;;6158363;23;20200;-80
2023/11/24 02:21:12;;;;;;;0.93;0.50;;;17.50;59.90;;;;;;6104217;23;20238;-79
2023/11/24 02:23:37;;;;;;;3.20;0.65;;;17.50;59.90;;;;;;6158461;23;20163;-80
2023/11/24 02:26:03;;;;;;;1.35;0.73;;;17.50;59.90;;;;;;6157758;23;20138;-81
2023/11/24 02:28:29;;;;;;;2.03;0.80;;;17.50;60.00;;;;;;6158627;23;20889;-79
2023/11/24 02:30:59;;;;;;;0.70;0.70;;;17.50;59.90;;;;;;6184670;23;20229;-82
2023/11/24 02:33:26;;;;;;;1.27;0.57;;;17.50;59.80;;;;;;6184651;23;20141;-80
2023/11/24 02:35:53;;;;;;;2.33;0.75;;;17.50;59.90;;;;;;6158107;23;20158;-82
2023/11/24 02:38:18;;;;;;;0.90;0.60;;;17.50;59.90;;;;;;6184574;23;20194;-81
2023/11/24 02:40:50;;;;;;;0.75;0.50;;;17.50;60.00;;;;;;6158212;23;20593;-79
2023/11/24 02:43:16;;;;;;;2.08;0.60;;;17.50;60.00;;;;;;6106713;23;20154;-79
2023/11/24 02:45:41;;;;;;;2.40;0.93;;;17.50;60.00;;;;;;6184775;23;20150;-80
2023/11/24 02:48:12;;;;;;;1.30;0.68;;;17.50;59.90;;;;;;6184756;23;20498;-80
2023/11/24 02:50:44;;;;;;;0.95;0.70;;;17.50;60.00;;;;;;6108667;23;20158;-82
2023/11/24 02:53:09;;;;;;;1.42;0.52;;;17.50;60.00;;;;;;6060621;23;20169;-80
2023/11/24 02:55:35;;;;;;;1.02;0.50;;;17.40;60.00;;;;;;6185665;23;20482;-81
2023/11/24 02:58:01;;;;;;;1.95;0.65;;;17.40;60.00;;;;;;6160332;23;20164;-79
2023/11/24 03:00:27;;;;;;;2.40;0.70;;;17.50;60.00;;;;;;6160244;23;20151;-79
2023/11/24 03:02:59;;;;;;;2.45;1.02;;;17.40;59.90;;;;;;6160159;23;20159;-80
2023/11/24 03:05:31;;;;;;;2.08;0.65;;;17.50;59.90;;;;;;6087545;23;20154;-80
2023/11/24 03:07:57;;;;;;;2.80;0.73;;;17.40;59.90;;;;;;6110481;23;20182;-80
2023/11/24 03:10:22;;;;;;;0.75;0.60;;;17.40;59.90;;;;;;6160279;23;20567;-82
2023/11/24 03:12:48;;;;;;;2.78;0.80;;;17.40;59.90;;;;;;6186286;23;20143;-79
2023/11/24 03:15:14;;;;;;;1.73;0.45;;;17.40;59.90;;;;;;6186680;23;20613;-81
2023/11/24 03:17:40;;;;;;;1.35;0.52;;;17.50;59.90;;;;;;6186174;23;20194;-79
2023/11/24 03:20:06;;;;;;;1.10;0.55;;;17.40;59.90;;;;;;6160285;23;20146;-83
2023/11/24 03:22:37;;;;;;;1.38;0.65;;;17.40;59.90;;;;;;6186492;23;20629;-82
2023/11/24 03:25:03;;;;;;;1.77;0.50;;;17.40;59.70;;;;;;6110417;23;20151;-81
2023/11/24 03:27:29;;;;;;;2.17;0.80;;;17.40;59.90;;;;;;6186421;23;20571;-80
2023/11/24 03:29:55;;;;;;;1.40;0.57;;;17.40;59.90;;;;;;6186715;23;20218;-80
2023/11/24 03:32:20;;;;;;;3.08;0.80;;;17.40;59.90;;;;;;6186643;23;20575;-80
2023/11/24 03:34:52;;;;;;;2.00;0.77;;;17.40;59.80;;;;;;6186489;23;20167;-79
2023/11/24 03:37:18;;;;;;;1.35;0.60;;;17.40;59.60;;;;;;6086012;23;20158;-81
2023/11/24 03:39:43;;;;;;;0.60;0.60;;;17.40;59.80;;;;;;6159796;23;20266;-81
2023/11/24 03:42:14;;;;;;;2.75;0.60;;;17.40;59.80;;;;;;6186256;23;20567;-82
2023/11/24 03:44:40;;;;;;;1.00;0.60;;;17.40;59.80;;;;;;6110171;23;20510;-81
2023/11/24 03:47:11;;;;;;;2.65;0.73;;;17.40;59.90;;;;;;6186260;23;20146;-82
2023/11/24 03:49:41;;;;;;;1.20;0.70;;;17.40;60.00;;;;;;6085885;23;20182;-79
2023/11/24 03:52:12;;;;;;;1.95;0.70;;;17.40;59.70;;;;;;6085870;23;20238;-81
2023/11/24 03:54:43;;;;;;;1.92;0.60;;;17.40;59.80;;;;;;6109316;23;20197;-80
2023/11/24 03:57:09;;;;;;;1.88;0.65;;;17.40;59.80;;;;;;6110216;23;20233;-80
2023/11/24 03:59:34;;;;;;;2.67;0.52;;;17.40;59.80;;;;;;6159749;23;20221;-79
2023/11/24 04:02:00;;;;;;;1.27;0.73;;;17.40;59.80;;;;;;6186272;23;20516;-79
2023/11/24 04:04:26;;;;;;;2.35;0.70;;;17.40;59.90;;;;;;6185964;23;20598;-80
2023/11/24 04:06:52;;;;;;;1.58;0.50;;;17.40;59.70;;;;;;6159904;23;20135;-81
2023/11/24 04:09:18;;;;;;;0.73;0.68;;;17.40;59.80;;;;;;6186083;23;20134;-81
2023/11/24 04:11:44;;;;;;;2.72;0.65;;;17.40;59.80;;;;;;6159974;23;20139;-82
2023/11/24 04:14:09;;;;;;;0.77;0.60;;;17.40;59.70;;;;;;6186197;23;20226;-81
2023/11/24 04:16:36;;;;;;;0.50;0.50;;;17.40;59.60;;;;;;6159561;23;20571;-81
2023/11/24 04:19:02;;;;;;;0.60;0.50;;;17.40;59.80;;;;;;6186182;23;20177;-79
2023/11/24 04:21:35;;;;;;;0.88;0.57;;;17.40;59.80;;;;;;6186020;23;20510;-82
2023/11/24 04:24:01;;;;;;;1.95;0.60;;;17.40;59.70;;;;;;6110704;23;20154;-80
2023/11/24 04:26:27;;;;;;;3.13;0.60;;;17.40;59.70;;;;;;6185598;23;20214;-81
2023/11/24 04:29:02;;;;;;;2.25;0.80;;;17.30;59.70;;;;;;6186193;23;20170;-82
2023/11/24 04:31:28;;;;;;;2.15;0.80;;;17.40;59.70;;;;;;6110463;23;20497;-81
2023/11/24 04:33:54;;;;;;;1.52;0.60;;;17.30;59.60;;;;;;6159780;23;20139;-82
2023/11/24 04:36:20;;;;;;;1.77;0.85;;;17.30;59.70;;;;;;6185994;23;20146;-80
2023/11/24 04:38:45;;;;;;;1.90;0.50;;;17.30;59.70;;;;;;6184991;23;20613;-79
2023/11/24 04:41:12;;;;;;;1.75;0.70;;;17.30;59.70;;;;;;6185998;23;20162;-80
2023/11/24 04:43:45;;;;;;;2.05;0.68;;;17.40;59.80;;;;;;6159383;23;20158;-81
2023/11/24 04:46:19;;;;;;;1.75;0.70;;;17.30;59.70;;;;;;6109713;23;20246;-81
2023/11/24 04:48:45;;;;;;;2.00;0.70;;;17.30;59.60;;;;;;6109535;23;20485;-80
2023/11/24 04:51:10;;;;;;;0.95;0.80;;;17.30;59.70;;;;;;6185509;23;20575;-82
2023/11/24 04:53:36;;;;;;;0.98;0.50;;;17.30;59.60;;;;;;6185020;23;20139;-79
2023/11/24 04:56:06;;;;;;;1.30;0.50;;;17.30;59.60;;;;;;6158839;23;20571;-81
2023/11/24 04:58:32;;;;;;;2.38;0.60;;;17.40;59.60;;;;;;6109327;23;20178;-80
2023/11/24 05:00:57;;;;;;;0.90;0.40;;;17.40;59.60;;;;;;6185485;23;20466;-80
2023/11/24 05:03:23;;;;;;;1.80;0.50;;;17.40;59.70;;;;;;6185586;23;20447;-79
2023/11/24 05:05:49;;;;;;;1.85;0.60;;;17.30;59.50;;;;;;6184323;23;20466;-80
2023/11/24 05:08:16;;;;;;;2.80;0.70;;;17.30;59.60;;;;;;6185558;23;20139;-81
2023/11/24 05:10:43;;;;;;;2.17;0.90;;;17.30;59.70;;;;;;6109039;23;20151;-80
2023/11/24 05:13:08;;;;;;;1.38;0.50;;;17.30;59.60;;;;;;6084936;23;20158;-79
2023/11/24 05:15:34;;;;;;;1.17;0.60;;;17.30;59.60;;;;;;6185806;23;20895;-80
2023/11/24 05:18:07;;;;;;;1.42;0.60;;;17.30;59.60;;;;;;6158087;23;20673;-83
2023/11/24 05:20:33;;;;;;;2.40;0.50;;;17.40;59.70;;;;;;6086955;23;20208;-82
2023/11/24 05:22:58;;;;;;;3.65;0.60;;;17.30;59.70;;;;;;6159128;23;20131;-82
2023/11/24 05:25:24;;;;;;;2.17;0.70;;;17.30;59.60;;;;;;6159186;23;20605;-81
2023/11/24 05:27:50;;;;;;;0.57;0.55;;;17.30;59.50;;;;;;6185243;23;20138;-81
2023/11/24 05:30:15;;;;;;;1.92;0.70;;;17.30;59.60;;;;;;6185165;23;20567;-83
2023/11/24 05:32:41;;;;;;;1.63;0.60;;;17.30;59.60;;;;;;6185226;23;20626;-80
2023/11/24 05:35:09;;;;;;;0.63;0.55;;;17.30;59.30;;;;;;6185374;23;20146;-83
2023/11/24 05:37:35;;;;;;;1.85;0.70;;;17.30;59.60;;;;;;6109082;23;20154;-81
2023/11/24 05:40:04;;;;;;;1.65;0.80;;;17.30;59.40;;;;;;6185170;23;20254;-81
2023/11/24 05:42:29;;;;;;;1.73;0.95;;;17.30;59.60;;;;;;6184837;23;20135;-81
2023/11/24 05:44:55;;;;;;;1.05;0.50;;;17.30;59.60;;;;;;6158867;23;20149;-81
2023/11/24 05:47:22;;;;;;;1.48;0.50;;;17.30;59.50;;;;;;6159079;23;20517;-81
2023/11/24 05:49:49;;;;;;;1.58;0.70;;;17.30;59.60;;;;;;6108776;23;20157;-80
2023/11/24 05:52:15;;;;;;;2.90;0.60;;;17.30;59.60;;;;;;6184963;23;20150;-81
2023/11/24 05:54:42;;;;;;;2.70;0.60;;;17.30;59.50;;;;;;6183979;23;20505;-83
2023/11/24 05:57:08;;;;;;;0.60;0.50;;;17.30;59.60;;;;;;6158332;23;20137;-80
2023/11/24 05:59:33;;;;;;;1.50;0.50;;;17.30;59.40;;;;;;6183885;23;20170;-83
2023/11/24 06:01:59;;;;;;;1.00;0.60;;;17.30;59.50;;;;;;6185158;23;20130;-80
2023/11/24 06:04:25;;;;;;;1.52;0.60;;;17.30;59.50;;;;;;6185075;23;20532;-80
2023/11/24 06:06:54;;;;;;;1.50;0.60;;;17.30;59.50;;;;;;6184240;23;20700;-82
2023/11/24 06:09:19;;;;;;;2.00;0.65;;;17.30;59.50;;;;;;6109016;23;20586;-82
2023/11/24 06:11:45;;;;;;;0.98;0.40;;;17.30;59.40;;;;;;6184784;23;20162;-82
2023/11/24 06:14:11;;;;;;;1.58;0.60;;;17.30;59.40;;;;;;6158700;23;20432;-80
2023/11/24 06:16:37;;;;;;;1.25;0.63;;;17.30;59.50;;;;;;6184757;23;20137;-80
2023/11/24 06:19:02;;;;;;;2.58;0.50;;;17.30;59.50;;;;;;6157690;23;20179;-80
2023/11/24 06:21:29;;;;;;;1.38;0.57;;;17.30;59.40;;;;;;6185293;23;20135;-80
2023/11/24 06:23:55;;;;;;;1.33;0.73;;;17.30;59.40;;;;;;6158782;23;20562;-80
2023/11/24 06:26:21;;;;;;;1.55;0.57;;;17.30;59.30;;;;;;6184775;23;20135;-81
2023/11/24 06:28:46;;;;;;;0.65;0.60;;;17.30;59.30;;;;;;6185120;23;20567;-81
2023/11/24 06:31:14;;;;;;;0.95;0.52;;;17.30;59.40;;;;;;6158463;23;20143;-81
2023/11/24 06:33:45;;;;;;;1.95;0.70;;;17.30;59.40;;;;;;6158712;23;20141;-83
2023/11/24 06:36:11;;;;;;;1.15;0.50;;;17.30;59.30;;;;;;6132711;23;20166;-81
2023/11/24 06:38:37;;;;;;;1.30;0.60;;;17.30;59.30;;;;;;6158338;23;20179;-79
2023/11/24 06:41:02;;;;;;;1.25;0.70;;;17.30;59.40;;;;;;6158549;23;20448;-82
2023/11/24 06:43:35;;;;;;;1.00;0.50;;;17.30;59.40;;;;;;6108927;23;20151;-82
2023/11/24 06:46:02;;;;;;;1.63;0.60;;;17.30;59.20;;;;;;6108637;23;20147;-80
2023/11/24 06:48:27;;;;;;;1.52;0.52;;;17.30;59.20;;;;;;6158541;23;20141;-82
2023/11/24 06:50:53;;;;;;;0.93;0.45;;;17.30;59.90;;;;;;6183363;23;20230;-82
2023/11/24 06:53:19;;;;;;;1.08;0.63;;;17.30;59.00;;;;;;6184706;23;20637;-80
2023/11/24 06:55:44;;;;;;;1.05;0.60;;;17.40;58.90;;;;;;6183295;23;20155;-83
2023/11/24 06:58:10;;;;;;;0.52;0.45;;;17.30;58.90;;;;;;6183916;23;20170;-82
2023/11/24 07:00:36;;;;;;;1.98;0.60;;;17.30;59.00;;;;;;6184708;23;20567;-81
2023/11/24 07:03:01;;;;;;;1.73;0.63;;;17.30;58.90;;;;;;6184477;23;20225;-81
2023/11/24 07:05:28;;;;;;;1.83;0.50;;;17.30;59.00;;;;;;6184580;23;20215;-84
2023/11/24 07:07:54;;;;;;;1.95;0.60;;;17.30;58.90;;;;;;6184686;23;20131;-80
2023/11/24 07:10:22;;;;;;;2.13;0.60;;;17.30;58.60;;;;;;6184666;23;20135;-82
2023/11/24 07:12:48;;;;;;;1.58;0.60;;;17.30;58.50;;;;;;6184702;23;20139;-82
2023/11/24 07:15:13;;;;;;;0.70;0.50;;;17.30;58.80;;;;;;6134323;23;20131;-80
2023/11/24 07:17:39;;;;;;;0.75;0.50;;;17.40;58.20;;;;;;6184146;23;20182;-82
2023/11/24 07:20:06;;;;;;;1.23;0.60;;;17.40;57.80;;;;;;6184744;23;20209;-80
2023/11/24 07:22:33;;;;;;;0.93;0.47;;;17.50;58.10;;;;;;6184476;23;20189;-80
2023/11/24 07:24:58;;;;;;;2.38;0.60;;;17.50;57.80;;;;;;6184400;23;20162;-81
2023/11/24 07:27:24;;;;;;;1.10;0.40;;;17.50;57.80;;;;;;6185023;23;20131;-80
2023/11/24 07:29:50;;;;;;;1.05;0.50;;;17.50;58.10;;;;;;6158274;23;20135;-80
2023/11/24 07:32:16;;;;;;;1.60;0.55;;;17.50;57.90;;;;;;6184422;23;20514;-81
2023/11/24 07:34:42;;;;;;;3.42;0.60;;;17.50;58.00;;;;;;6183877;23;20210;-81
2023/11/24 07:37:08;;;;;;;1.63;0.60;;;17.50;58.00;;;;;;6158579;23;20139;-81
2023/11/24 07:39:37;;;;;;;0.77;0.43;;;17.50;57.90;;;;;;6158401;23;20169;-82
2023/11/24 07:42:03;;;;;;;1.45;0.63;;;17.50;57.50;;;;;;6109866;23;20158;-81
2023/11/24 07:44:31;;;;;;;0.80;0.60;;;17.60;57.40;;;;;;6159845;23;20131;-80
2023/11/24 07:46:57;;;;;;;3.45;0.60;;;17.60;57.80;;;;;;6186283;23;20184;-81
2023/11/24 07:49:22;;;;;;;2.10;0.80;;;17.60;57.40;;;;;;6184945;23;20218;-83
2023/11/24 07:51:48;;;;;;;0.60;0.50;;;17.60;57.50;;;;;;6186289;23;20138;-81
2023/11/24 07:54:15;;;;;;;1.42;0.68;;;17.60;57.60;;;;;;6159545;23;20238;-80
2023/11/24 07:56:41;;;;;;;0.68;0.40;;;17.60;57.80;;;;;;6186247;23;20218;-80
2023/11/24 07:59:07;;;;;;;1.17;0.50;;;17.60;57.60;;;;;;6160566;23;20862;-82
2023/11/24 08:01:33;;;;;;;0.85;0.45;;;17.60;57.50;;;;;;6186331;23;20213;-83
2023/11/24 08:04:00;;;;;;;1.10;0.45;;;17.60;57.60;;;;;;6160014;23;20131;-82
2023/11/24 08:06:25;;;;;;;1.05;0.50;;;17.60;57.60;;;;;;6186230;23;20166;-81
2023/11/24 08:08:52;;;;;;;2.08;0.55;;;17.60;57.60;;;;;;6185928;23;20135;-82
2023/11/24 08:11:18;;;;;;;2.33;0.45;;;17.60;57.20;;;;;;6160036;23;20592;-80
2023/11/24 08:13:44;;;;;;;0.40;0.40;;;17.60;57.00;;;;;;6135254;23;20170;-80
2023/11/24 08:16:11;;;;;;;0.95;0.50;;;17.70;56.50;;;;;;6159755;23;20147;-81
2023/11/24 08:18:38;;;;;;;1.92;0.60;;;17.70;57.10;;;;;;6160036;23;20712;-82
2023/11/24 08:21:04;;;;;;;1.30;0.47;;;17.60;56.90;;;;;;6185177;23;20134;-81
2023/11/24 08:23:30;;;;;;;0.88;0.65;;;17.70;56.70;;;;;;6159044;23;20153;-78
2023/11/24 08:25:56;;;;;;;1.92;0.50;;;17.80;56.90;;;;;;6187135;23;20142;-81
2023/11/24 08:28:21;;;;;;;2.28;0.50;;;17.70;56.60;;;;;;6187234;23;20155;-80
2023/11/24 08:31:06;;;;;;;0.55;0.50;;;17.70;56.90;;;;;;6188939;23;20151;-82
2023/11/24 08:33:49;;;;;;;2.17;0.52;;;17.70;56.60;;;;;;6162882;23;20134;-81
2023/11/24 08:36:15;;;;;;;1.10;0.60;;;17.70;57.20;;;;;;6139211;23;20150;-79
2023/11/24 08:38:40;;;;;;;1.35;0.60;;;17.70;56.90;;;;;;6162323;23;20177;-79
2023/11/24 08:41:11;;;;;;;1.48;0.50;;;17.70;56.60;;;;;;6161827;23;20135;-80
2023/11/24 08:43:37;;;;;;;1.02;0.63;;;17.70;56.60;;;;;;6137666;23;20142;-81
2023/11/24 08:46:03;;;;;;;1.85;0.50;;;17.70;57.00;;;;;;6159569;23;20155;-79
2023/11/24 08:48:29;;;;;;;0.50;0.50;;;17.70;56.60;;;;;;6186397;23;20190;-80
2023/11/24 08:50:54;;;;;;;1.75;0.50;;;17.70;56.90;;;;;;6160047;23;20166;-80
2023/11/24 08:53:20;;;;;;;0.82;0.50;;;17.70;56.80;;;;;;6186990;23;20135;-81
2023/11/24 09:33:23;;;;;;;2.15;0.50;;;17.80;56.30;;;;;;6181415;23;20221;-80
2023/11/24 09:35:49;;;;;;;2.10;0.55;;;17.80;55.80;;;;;;6159495;23;20158;-81
2023/11/24 09:38:15;;;;;;;0.75;0.47;;;17.80;56.60;;;;;;6163323;23;20214;-79
2023/11/24 09:53:57;;;;;;;0.52;0.32;;;17.90;56.30;;;;;;6159325;23;20174;-80
2023/11/24 09:56:23;;;;;;;1.33;0.50;;;17.80;55.80;;;;;;6185777;23;20209;-82
2023/11/24 09:58:49;;;;;;;0.55;0.38;;;17.90;55.80;;;;;;6185656;23;20174;-82
2023/11/24 10:01:18;;;;;;;1.75;0.30;;;17.90;56.20;;;;;;6135671;23;20162;-79
2023/11/24 10:03:48;;;;;;;0.85;0.40;;;17.80;55.80;;;;;;6135835;23;20174;-79
2023/11/24 10:06:15;;;;;;;1.25;0.28;;;17.90;55.90;;;;;;6186444;23;20169;-81
2023/11/24 10:08:40;;;;;;;0.55;0.50;;;17.90;56.00;;;;;;6185385;23;20218;-84
2023/11/24 10:11:12;;;;;;;1.35;0.30;;;17.90;56.00;;;;;;6134029;23;20222;-80
2023/11/24 10:13:41;;;;;;;0.30;0.30;;;17.90;55.60;;;;;;6184628;23;20138;-83
2023/11/24 10:16:10;;;;;;;0.90;0.70;;;17.90;55.40;;;;;;6185154;23;20166;-78
2023/11/24 10:18:36;;;;;;;0.50;0.30;;;17.90;55.90;;;;;;6158192;23;20167;-80
2023/11/24 10:21:02;;;;;;;0.55;0.43;;;18.00;55.80;;;;;;6159276;23;20185;-83
2023/11/24 10:23:30;;;;;;;0.68;0.40;;;17.90;56.70;;;;;;6185692;23;20139;-80
2023/11/24 10:25:57;;;;;;;1.27;0.30;;;17.90;55.80;;;;;;6159147;23;20126;-81
2023/11/24 10:28:24;;;;;;;0.73;0.45;;;18.00;55.80;;;;;;6184769;23;20193;-80
2023/11/24 10:30:50;;;;;;;1.27;0.30;;;18.00;56.00;;;;;;6185056;23;20158;-84
2023/11/24 10:33:17;;;;;;;0.82;0.30;;;18.00;55.10;;;;;;6184595;23;20840;-81
2023/11/24 10:35:45;;;;;;;0.30;0.30;;;18.00;55.20;;;;;;6185081;23;20131;-83
2023/11/24 10:38:14;;;;;;;0.73;0.32;;;18.00;55.30;;;;;;6184376;23;20230;-84
2023/11/24 10:40:40;;;;;;;0.82;0.35;;;18.00;55.80;;;;;;6159150;23;20166;-84
2023/11/24 10:43:07;;;;;;;1.23;0.40;;;18.00;55.50;;;;;;6185013;23;20141;-81
2023/11/24 10:45:34;;;;;;;0.30;0.28;;;18.00;55.70;;;;;;6159135;23;20622;-83
2023/11/24 10:48:11;;;;;;;0.40;0.30;;;18.00;55.40;;;;;;6184563;23;20218;-82
2023/11/24 10:50:41;;;;;;;2.35;0.40;;;18.10;55.00;;;;;;6185048;23;20135;-83
2023/11/24 10:53:18;;;;;;;0.30;0.30;;;18.10;55.10;;;;;;6184583;23;20242;-83
2023/11/24 10:55:44;;;;;;;0.65;0.30;;;18.10;54.90;;;;;;6184537;23;20337;-84
2023/11/24 10:58:10;;;;;;;0.45;0.32;;;18.10;55.20;;;;;;6157990;23;20135;-82
2023/11/24 11:00:37;;;;;;;0.30;0.30;;;18.10;55.10;;;;;;6185110;23;20135;-84
2023/11/24 11:03:06;;;;;;;0.30;0.30;;;18.00;55.30;;;;;;6134058;23;20230;-82
2023/11/24 11:05:57;;;;;;;1.73;0.40;;;18.20;54.50;;;;;;6157737;23;20229;-85
2023/11/24 11:08:35;;;;;;;1.02;0.30;;;18.10;54.60;;;;;;6108591;23;20182;-80
2023/11/24 11:11:27;;;;;;;0.50;0.30;;;18.10;54.40;;;;;;6184730;23;20134;-83
2023/11/24 11:13:53;;;;;;;0.30;0.30;;;18.10;54.10;;;;;;6185360;23;20581;-83
2023/11/24 11:16:19;;;;;;;0.80;0.50;;;18.20;54.30;;;;;;6186231;23;20201;-80
2023/11/24 11:18:45;;;;;;;1.00;0.40;;;18.10;54.50;;;;;;6186637;23;20181;-81
2023/11/24 11:21:37;;;;;;;0.82;0.40;;;18.20;54.60;;;;;;6186472;23;20135;-82
2023/11/24 11:24:04;;;;;;;0.63;0.35;;;18.10;54.70;;;;;;6165946;23;20134;-81
2023/11/24 11:26:50;;;;;;;0.45;0.32;;;18.10;55.10;;;;;;6186639;23;20462;-83
2023/11/24 11:29:18;;;;;;;0.40;0.40;;;18.10;54.60;;;;;;6160397;23;20142;-84
2023/11/24 11:31:46;;;;;;;0.77;0.43;;;18.10;54.70;;;;;;6187059;23;20134;-83
2023/11/24 11:34:20;;;;;;;0.35;0.35;;;18.10;54.90;;;;;;6187107;23;20131;-82
2023/11/24 11:37:01;;;;;;;0.50;0.30;;;18.10;55.30;;;;;;6135105;23;20153;-84
2023/11/24 11:39:29;;;;;;;0.70;0.30;;;18.10;55.10;;;;;;6161195;23;20290;-81
2023/11/24 11:41:59;;;;;;;0.25;0.20;;;18.00;55.10;;;;;;6160087;23;20163;-83
2023/11/24 11:44:33;;;;;;;0.85;0.40;;;18.10;55.00;;;;;;6159673;23;20154;-80
2023/11/24 11:47:20;;;;;;;0.40;0.30;;;18.10;54.60;;;;;;6183598;23;20131;-83
2023/11/24 11:49:51;;;;;;;0.50;0.30;;;18.10;55.60;;;;;;6160174;23;20139;-84
2023/11/24 11:52:19;;;;;;;0.43;0.20;;;18.10;54.50;;;;;;6132487;23;20143;-81
2023/11/24 11:54:46;;;;;;;0.35;0.30;;;18.10;54.10;;;;;;6183891;23;20202;-84
2023/11/24 11:57:12;;;;;;;1.25;0.50;;;18.10;54.20;;;;;;6156737;23;20151;-80
2023/11/24 11:59:39;;;;;;;0.88;0.30;;;18.10;54.50;;;;;;6186011;23;20167;-82
2023/11/24 12:02:06;;;;;;;0.55;0.35;;;18.20;54.40;;;;;;6159233;23;20131;-80
2023/11/24 12:04:32;;;;;;;0.68;0.35;;;18.20;54.40;;;;;;6158797;23;20160;-84
2023/11/24 12:07:00;;;;;;;0.80;0.30;;;18.20;54.20;;;;;;6134608;23;20138;-81
2023/11/24 12:09:25;;;;;;;0.60;0.38;;;18.10;53.80;;;;;;6160177;23;20131;-82
2023/11/24 12:11:51;;;;;;;0.50;0.30;;;18.10;53.90;;;;;;6133893;23;20193;-82
2023/11/24 12:14:17;;;;;;;0.63;0.30;;;18.20;54.20;;;;;;6185629;23;20135;-85
2023/11/24 12:16:42;;;;;;;0.30;0.30;;;18.20;53.90;;;;;;6185103;23;20625;-83
2023/11/24 12:19:08;;;;;;;0.28;0.28;;;18.20;53.40;;;;;;6158992;23;20162;-82
2023/11/24 12:21:35;;;;;;;0.38;0.30;;;18.20;54.10;;;;;;6184645;23;20305;-82
2023/11/24 12:24:02;;;;;;;0.47;0.35;;;18.20;53.50;;;;;;6156758;23;20135;-82
2023/11/24 12:26:28;;;;;;;0.32;0.30;;;18.20;54.30;;;;;;6182443;23;20135;-81
2023/11/24 12:28:57;;;;;;;0.35;0.20;;;18.20;54.60;;;;;;6134723;23;20143;-84
2023/11/24 12:31:27;;;;;;;0.32;0.30;;;18.10;53.70;;;;;;6132513;23;20154;-81
2023/11/24 12:33:54;;;;;;;0.38;0.30;;;18.10;53.60;;;;;;6185788;23;20202;-81
2023/11/24 12:36:19;;;;;;;0.20;0.20;;;18.20;54.00;;;;;;6134861;23;20816;-81
2023/11/24 12:38:45;;;;;;;0.30;0.30;;;18.20;54.10;;;;;;6185620;23;20610;-84
2023/11/24 12:41:12;;;;;;;0.38;0.38;;;18.10;53.50;;;;;;6134821;23;20146;-81
2023/11/24 12:43:37;;;;;;;0.35;0.20;;;18.20;54.10;;;;;;6159496;23;20233;-81
2023/11/24 12:46:03;;;;;;;0.90;0.35;;;18.20;53.90;;;;;;6158214;23;20251;-82
2023/11/24 12:48:34;;;;;;;0.77;0.30;;;18.20;54.20;;;;;;6159494;23;20473;-82
2023/11/24 12:51:00;;;;;;;0.40;0.40;;;18.20;54.20;;;;;;6173394;23;20137;-84
2023/11/24 12:53:26;;;;;;;0.57;0.38;;;18.20;54.00;;;;;;6184664;23;20217;-84
2023/11/24 12:55:51;;;;;;;1.00;0.20;;;18.20;53.60;;;;;;6157937;23;20625;-80
2023/11/24 12:58:17;;;;;;;0.40;0.30;;;18.20;54.20;;;;;;6154457;23;20176;-82
2023/11/24 13:00:43;;;;;;;0.20;0.20;;;18.20;54.10;;;;;;6182138;23;20213;-83
2023/11/24 13:03:15;;;;;;;0.30;0.30;;;18.20;54.10;;;;;;6184010;23;20127;-83
2023/11/24 13:05:46;;;;;;;0.30;0.28;;;18.20;53.60;;;;;;6132347;23;20606;-82
2023/11/24 13:08:12;;;;;;;0.93;0.30;;;18.20;54.20;;;;;;6108580;23;20519;-84
2023/11/24 13:10:38;;;;;;;0.32;0.32;;;18.20;54.20;;;;;;6185501;23;20165;-81
2023/11/24 13:13:05;;;;;;;0.30;0.22;;;18.20;53.50;;;;;;6159066;23;20177;-82
2023/11/24 13:15:32;;;;;;;0.35;0.25;;;18.20;53.90;;;;;;6185452;23;20127;-84
2023/11/24 13:17:58;;;;;;;0.73;0.30;;;18.20;53.80;;;;;;6184931;23;20190;-84
2023/11/24 13:20:28;;;;;;;0.38;0.20;;;18.20;54.20;;;;;;6159267;23;20135;-85
2023/11/24 13:22:56;;;;;;;0.20;0.20;;;18.20;54.10;;;;;;6185520;23;20131;-82
2023/11/24 13:25:26;;;;;;;0.30;0.20;;;18.10;54.60;;;;;;6133147;23;20158;-81
2023/11/24 13:27:54;;;;;;;1.00;0.30;;;18.20;53.70;;;;;;6185416;23;20138;-83
2023/11/24 13:30:21;;;;;;;0.20;0.20;;;18.20;54.20;;;;;;6131667;23;20155;-80
2023/11/24 13:32:49;;;;;;;0.43;0.40;;;18.20;54.20;;;;;;6183668;23;20134;-83
2023/11/24 13:35:15;;;;;;;0.73;0.30;;;18.20;53.80;;;;;;6157959;23;20249;-83
2023/11/24 13:37:44;;;;;;;0.13;0.13;;;18.20;54.50;;;;;;6184734;23;20134;-83
2023/11/24 13:40:11;;;;;;;0.25;0.25;;;18.20;54.20;;;;;;6185085;23;20609;-83